Weather at Carutapera Airport

Public forecast

Using degrees Celsius for public forecast. Weather courtesy of forecast.io.

Closest aviation weather report (METAR) to Carutapera Airport

Report is more than 6 hours old.

Closest report is Turiaçu Airport, 47.1 nm (87.3 km) SE. Retrieved 2013/01/03 18:50 UTC (9 years ago):

SNTU 031850Z 09011KT 12SM SCT017 SCT040 BKM110 28/25 A2976 RMK SLP078 T02780253

Closest aviation forecast (TAF) to Carutapera Airport

Closest forecast is Marechal Cunha Machado International Airport, 134.7 nm (249.4 km) SE. Retrieved 2021/08/02 06:00 UTC (6 hours ago):

TAF SBSL 020330Z 0206/0306 07005KT 9999 FEW017 TN25/0208Z TX32/0218Z BECMG 0209/0211 10007KT SCT025 BECMG 0213/0215 BKN017 BECMG 0215/0217 12010KT BKN025 FEW030TCU TEMPO 0218/0221 06015KT 4000 TSRA BKN017 FEW025CB BECMG 0221/0223 04007KT SCT020 BECMG 0301/0303 06005KT FEW020 RMK PFV